sensor_id;sensor_type;location;lat;lon;timestamp;P1;durP1;ratioP1;P2;durP2;ratioP2
47519;SDS011;33252;48.122;11.538;2024-03-22T00:02:21;21.45;;;14.55;;
47519;SDS011;33252;48.122;11.538;2024-03-22T00:04:47;27.10;;;15.70;;
47519;SDS011;33252;48.122;11.538;2024-03-22T00:07:12;24.17;;;15.05;;
47519;SDS011;33252;48.122;11.538;2024-03-22T00:09:38;24.15;;;15.02;;
47519;SDS011;33252;48.122;11.538;2024-03-22T00:12:03;25.58;;;16.23;;
47519;SDS011;33252;48.122;11.538;2024-03-22T00:14:29;26.50;;;14.43;;
47519;SDS011;33252;48.122;11.538;2024-03-22T00:16:55;22.73;;;14.48;;
47519;SDS011;33252;48.122;11.538;2024-03-22T00:19:20;22.65;;;15.20;;
47519;SDS011;33252;48.122;11.538;2024-03-22T00:21:46;24.85;;;16.15;;
47519;SDS011;33252;48.122;11.538;2024-03-22T00:24:11;24.70;;;14.93;;
47519;SDS011;33252;48.122;11.538;2024-03-22T00:26:37;26.98;;;16.90;;
47519;SDS011;33252;48.122;11.538;2024-03-22T00:29:02;23.35;;;15.35;;
47519;SDS011;33252;48.122;11.538;2024-03-22T00:31:28;26.65;;;16.23;;
47519;SDS011;33252;48.122;11.538;2024-03-22T00:33:53;26.15;;;15.50;;
47519;SDS011;33252;48.122;11.538;2024-03-22T00:36:19;22.10;;;13.38;;
47519;SDS011;33252;48.122;11.538;2024-03-22T00:38:45;24.88;;;15.40;;
47519;SDS011;33252;48.122;11.538;2024-03-22T00:41:11;23.27;;;15.88;;
47519;SDS011;33252;48.122;11.538;2024-03-22T00:43:37;22.67;;;15.40;;
47519;SDS011;33252;48.122;11.538;2024-03-22T00:46:03;25.05;;;15.38;;
47519;SDS011;33252;48.122;11.538;2024-03-22T00:48:28;24.05;;;16.67;;
47519;SDS011;33252;48.122;11.538;2024-03-22T00:50:54;27.30;;;16.08;;
47519;SDS011;33252;48.122;11.538;2024-03-22T00:53:20;23.73;;;14.90;;
47519;SDS011;33252;48.122;11.538;2024-03-22T00:55:46;24.63;;;15.57;;
47519;SDS011;33252;48.122;11.538;2024-03-22T00:58:16;23.90;;;15.70;;
47519;SDS011;33252;48.122;11.538;2024-03-22T01:00:43;20.27;;;14.88;;
47519;SDS011;33252;48.122;11.538;2024-03-22T01:03:09;23.13;;;14.85;;
47519;SDS011;33252;48.122;11.538;2024-03-22T01:05:35;21.08;;;14.55;;
47519;SDS011;33252;48.122;11.538;2024-03-22T01:08:01;26.10;;;15.15;;
47519;SDS011;33252;48.122;11.538;2024-03-22T01:10:26;24.52;;;14.82;;
47519;SDS011;33252;48.122;11.538;2024-03-22T01:12:52;22.20;;;14.85;;
47519;SDS011;33252;48.122;11.538;2024-03-22T01:15:18;21.42;;;14.32;;
47519;SDS011;33252;48.122;11.538;2024-03-22T01:17:43;23.05;;;14.50;;
47519;SDS011;33252;48.122;11.538;2024-03-22T01:20:09;23.05;;;15.05;;
47519;SDS011;33252;48.122;11.538;2024-03-22T01:22:35;21.52;;;14.40;;
47519;SDS011;33252;48.122;11.538;2024-03-22T01:25:02;23.65;;;14.05;;
47519;SDS011;33252;48.122;11.538;2024-03-22T01:27:27;22.15;;;14.68;;
47519;SDS011;33252;48.122;11.538;2024-03-22T01:29:53;30.48;;;16.00;;
47519;SDS011;33252;48.122;11.538;2024-03-22T01:32:18;26.27;;;14.60;;
47519;SDS011;33252;48.122;11.538;2024-03-22T01:34:44;21.20;;;13.25;;
47519;SDS011;33252;48.122;11.538;2024-03-22T01:37:09;21.80;;;14.38;;
47519;SDS011;33252;48.122;11.538;2024-03-22T01:39:35;21.50;;;13.95;;
47519;SDS011;33252;48.122;11.538;2024-03-22T01:42:00;25.33;;;14.95;;
47519;SDS011;33252;48.122;11.538;2024-03-22T01:44:29;24.75;;;14.98;;
47519;SDS011;33252;48.122;11.538;2024-03-22T01:46:57;27.20;;;15.93;;
47519;SDS011;33252;48.122;11.538;2024-03-22T01:49:22;25.15;;;14.27;;
47519;SDS011;33252;48.122;11.538;2024-03-22T01:51:50;22.55;;;15.15;;
47519;SDS011;33252;48.122;11.538;2024-03-22T01:54:15;25.25;;;13.75;;
47519;SDS011;33252;48.122;11.538;2024-03-22T01:56:41;25.15;;;16.08;;
47519;SDS011;33252;48.122;11.538;2024-03-22T01:59:08;22.77;;;14.27;;
47519;SDS011;33252;48.122;11.538;2024-03-22T02:01:34;22.13;;;13.85;;
47519;SDS011;33252;48.122;11.538;2024-03-22T02:04:01;23.52;;;14.55;;
47519;SDS011;33252;48.122;11.538;2024-03-22T02:06:27;23.10;;;13.55;;
47519;SDS011;33252;48.122;11.538;2024-03-22T02:08:52;21.55;;;13.75;;
47519;SDS011;33252;48.122;11.538;2024-03-22T02:11:18;23.65;;;14.10;;
47519;SDS011;33252;48.122;11.538;2024-03-22T02:13:44;22.98;;;13.45;;
47519;SDS011;33252;48.122;11.538;2024-03-22T02:16:10;20.85;;;13.48;;
47519;SDS011;33252;48.122;11.538;2024-03-22T02:18:36;19.67;;;12.45;;
47519;SDS011;33252;48.122;11.538;2024-03-22T02:21:01;27.52;;;14.52;;
47519;SDS011;33252;48.122;11.538;2024-03-22T02:23:36;23.38;;;13.77;;
47519;SDS011;33252;48.122;11.538;2024-03-22T02:26:03;20.40;;;12.77;;
47519;SDS011;33252;48.122;11.538;2024-03-22T02:28:30;22.70;;;13.40;;
47519;SDS011;33252;48.122;11.538;2024-03-22T02:30:57;21.15;;;14.00;;
47519;SDS011;33252;48.122;11.538;2024-03-22T02:33:23;24.58;;;13.85;;
47519;SDS011;33252;48.122;11.538;2024-03-22T02:35:48;23.00;;;14.55;;
47519;SDS011;33252;48.122;11.538;2024-03-22T02:38:15;27.25;;;15.48;;
47519;SDS011;33252;48.122;11.538;2024-03-22T02:40:42;23.92;;;14.07;;
47519;SDS011;33252;48.122;11.538;2024-03-22T02:43:08;24.92;;;15.18;;
47519;SDS011;33252;48.122;11.538;2024-03-22T02:45:34;24.17;;;14.60;;
47519;SDS011;33252;48.122;11.538;2024-03-22T02:47:59;26.30;;;13.93;;
47519;SDS011;33252;48.122;11.538;2024-03-22T02:50:25;25.67;;;14.95;;
47519;SDS011;33252;48.122;11.538;2024-03-22T02:52:50;27.13;;;13.93;;
47519;SDS011;33252;48.122;11.538;2024-03-22T02:55:16;22.92;;;14.05;;
47519;SDS011;33252;48.122;11.538;2024-03-22T02:57:41;24.48;;;14.70;;
47519;SDS011;33252;48.122;11.538;2024-03-22T03:00:07;25.40;;;14.82;;
47519;SDS011;33252;48.122;11.538;2024-03-22T03:02:33;22.20;;;14.77;;
47519;SDS011;33252;48.122;11.538;2024-03-22T03:04:59;29.02;;;14.75;;
47519;SDS011;33252;48.122;11.538;2024-03-22T03:07:25;27.00;;;14.35;;
47519;SDS011;33252;48.122;11.538;2024-03-22T03:09:50;25.80;;;14.57;;
47519;SDS011;33252;48.122;11.538;2024-03-22T03:12:16;25.73;;;14.98;;
47519;SDS011;33252;48.122;11.538;2024-03-22T03:14:41;25.20;;;14.63;;
47519;SDS011;33252;48.122;11.538;2024-03-22T03:17:07;25.60;;;15.70;;
47519;SDS011;33252;48.122;11.538;2024-03-22T03:19:33;24.63;;;15.52;;
47519;SDS011;33252;48.122;11.538;2024-03-22T03:21:58;23.83;;;14.35;;
47519;SDS011;33252;48.122;11.538;2024-03-22T03:24:24;29.38;;;16.35;;
47519;SDS011;33252;48.122;11.538;2024-03-22T03:26:50;27.40;;;15.57;;
47519;SDS011;33252;48.122;11.538;2024-03-22T03:29:15;25.23;;;15.07;;
47519;SDS011;33252;48.122;11.538;2024-03-22T03:31:41;31.50;;;16.00;;
47519;SDS011;33252;48.122;11.538;2024-03-22T03:34:06;23.95;;;14.00;;
47519;SDS011;33252;48.122;11.538;2024-03-22T03:36:32;29.75;;;16.75;;
47519;SDS011;33252;48.122;11.538;2024-03-22T03:38:57;28.60;;;17.30;;
47519;SDS011;33252;48.122;11.538;2024-03-22T03:41:23;28.25;;;15.18;;
47519;SDS011;33252;48.122;11.538;2024-03-22T03:43:48;29.05;;;17.50;;
47519;SDS011;33252;48.122;11.538;2024-03-22T03:46:14;27.67;;;16.48;;
47519;SDS011;33252;48.122;11.538;2024-03-22T03:48:39;26.23;;;15.20;;
47519;SDS011;33252;48.122;11.538;2024-03-22T03:51:05;23.75;;;14.85;;
47519;SDS011;33252;48.122;11.538;2024-03-22T03:53:30;25.77;;;16.08;;
47519;SDS011;33252;48.122;11.538;2024-03-22T03:55:56;29.35;;;16.08;;
47519;SDS011;33252;48.122;11.538;2024-03-22T03:58:21;29.50;;;15.43;;
47519;SDS011;33252;48.122;11.538;2024-03-22T04:00:47;29.38;;;16.17;;
47519;SDS011;33252;48.122;11.538;2024-03-22T04:03:13;25.52;;;15.60;;
47519;SDS011;33252;48.122;11.538;2024-03-22T04:05:38;26.20;;;16.10;;
47519;SDS011;33252;48.122;11.538;2024-03-22T04:08:04;26.50;;;15.15;;
47519;SDS011;33252;48.122;11.538;2024-03-22T04:10:30;28.67;;;16.48;;
47519;SDS011;33252;48.122;11.538;2024-03-22T04:12:55;26.70;;;15.52;;
47519;SDS011;33252;48.122;11.538;2024-03-22T04:15:21;27.83;;;15.25;;
47519;SDS011;33252;48.122;11.538;2024-03-22T04:17:46;24.90;;;15.98;;
47519;SDS011;33252;48.122;11.538;2024-03-22T04:20:12;25.92;;;16.13;;
47519;SDS011;33252;48.122;11.538;2024-03-22T04:22:37;28.17;;;16.45;;
47519;SDS011;33252;48.122;11.538;2024-03-22T04:25:03;26.83;;;16.52;;
47519;SDS011;33252;48.122;11.538;2024-03-22T04:27:29;26.17;;;15.48;;
47519;SDS011;33252;48.122;11.538;2024-03-22T04:29:54;28.05;;;15.52;;
47519;SDS011;33252;48.122;11.538;2024-03-22T04:32:20;29.45;;;16.85;;
47519;SDS011;33252;48.122;11.538;2024-03-22T04:34:46;29.73;;;16.63;;
47519;SDS011;33252;48.122;11.538;2024-03-22T04:37:11;26.23;;;16.17;;
47519;SDS011;33252;48.122;11.538;2024-03-22T04:39:37;25.55;;;17.05;;
47519;SDS011;33252;48.122;11.538;2024-03-22T04:42:03;33.75;;;17.45;;
47519;SDS011;33252;48.122;11.538;2024-03-22T04:44:29;28.05;;;17.80;;
47519;SDS011;33252;48.122;11.538;2024-03-22T04:46:55;26.50;;;15.50;;
47519;SDS011;33252;48.122;11.538;2024-03-22T04:49:20;24.73;;;14.73;;
47519;SDS011;33252;48.122;11.538;2024-03-22T04:51:46;26.45;;;15.63;;
47519;SDS011;33252;48.122;11.538;2024-03-22T04:54:12;21.60;;;13.52;;
47519;SDS011;33252;48.122;11.538;2024-03-22T04:56:38;25.85;;;15.75;;
47519;SDS011;33252;48.122;11.538;2024-03-22T04:59:04;26.33;;;14.90;;
47519;SDS011;33252;48.122;11.538;2024-03-22T05:01:30;25.67;;;15.38;;
47519;SDS011;33252;48.122;11.538;2024-03-22T05:03:55;27.27;;;15.23;;
47519;SDS011;33252;48.122;11.538;2024-03-22T05:06:21;27.02;;;14.73;;
47519;SDS011;33252;48.122;11.538;2024-03-22T05:08:46;23.38;;;14.73;;
47519;SDS011;33252;48.122;11.538;2024-03-22T05:11:12;23.40;;;15.27;;
47519;SDS011;33252;48.122;11.538;2024-03-22T05:13:37;24.52;;;15.18;;
47519;SDS011;33252;48.122;11.538;2024-03-22T05:16:05;24.10;;;14.23;;
47519;SDS011;33252;48.122;11.538;2024-03-22T05:18:31;26.95;;;15.05;;
47519;SDS011;33252;48.122;11.538;2024-03-22T05:20:56;22.27;;;13.02;;
47519;SDS011;33252;48.122;11.538;2024-03-22T05:23:22;23.77;;;13.30;;
47519;SDS011;33252;48.122;11.538;2024-03-22T05:25:47;22.15;;;13.10;;
47519;SDS011;33252;48.122;11.538;2024-03-22T05:28:13;19.45;;;11.77;;
47519;SDS011;33252;48.122;11.538;2024-03-22T05:30:39;18.40;;;12.55;;
47519;SDS011;33252;48.122;11.538;2024-03-22T05:33:04;18.52;;;12.73;;
47519;SDS011;33252;48.122;11.538;2024-03-22T05:35:30;21.45;;;11.75;;
47519;SDS011;33252;48.122;11.538;2024-03-22T05:37:55;15.57;;;10.68;;
47519;SDS011;33252;48.122;11.538;2024-03-22T05:40:21;17.75;;;11.02;;
47519;SDS011;33252;48.122;11.538;2024-03-22T05:42:47;20.58;;;12.40;;
47519;SDS011;33252;48.122;11.538;2024-03-22T05:45:12;18.90;;;12.07;;
47519;SDS011;33252;48.122;11.538;2024-03-22T05:47:38;21.25;;;11.93;;
47519;SDS011;33252;48.122;11.538;2024-03-22T05:50:03;19.48;;;10.70;;
47519;SDS011;33252;48.122;11.538;2024-03-22T05:52:32;20.30;;;12.95;;
47519;SDS011;33252;48.122;11.538;2024-03-22T05:54:58;16.98;;;10.05;;
47519;SDS011;33252;48.122;11.538;2024-03-22T05:57:23;18.98;;;11.75;;
47519;SDS011;33252;48.122;11.538;2024-03-22T05:59:49;17.48;;;11.13;;
47519;SDS011;33252;48.122;11.538;2024-03-22T06:02:14;19.45;;;10.88;;
47519;SDS011;33252;48.122;11.538;2024-03-22T06:04:41;17.02;;;10.75;;
47519;SDS011;33252;48.122;11.538;2024-03-22T06:07:06;18.83;;;12.35;;
47519;SDS011;33252;48.122;11.538;2024-03-22T06:09:32;18.40;;;11.40;;
47519;SDS011;33252;48.122;11.538;2024-03-22T06:12:10;17.08;;;10.75;;
47519;SDS011;33252;48.122;11.538;2024-03-22T06:14:37;20.20;;;11.55;;
47519;SDS011;33252;48.122;11.538;2024-03-22T06:17:03;18.63;;;11.13;;
47519;SDS011;33252;48.122;11.538;2024-03-22T06:19:29;19.13;;;12.13;;
47519;SDS011;33252;48.122;11.538;2024-03-22T06:21:54;17.20;;;11.38;;
47519;SDS011;33252;48.122;11.538;2024-03-22T06:24:20;21.10;;;12.23;;
47519;SDS011;33252;48.122;11.538;2024-03-22T06:26:45;14.55;;;9.07;;
47519;SDS011;33252;48.122;11.538;2024-03-22T06:29:11;16.40;;;10.85;;
47519;SDS011;33252;48.122;11.538;2024-03-22T06:31:37;18.67;;;11.15;;
47519;SDS011;33252;48.122;11.538;2024-03-22T06:34:03;14.93;;;9.73;;
47519;SDS011;33252;48.122;11.538;2024-03-22T06:36:30;18.50;;;12.07;;
47519;SDS011;33252;48.122;11.538;2024-03-22T06:38:57;14.27;;;10.88;;
47519;SDS011;33252;48.122;11.538;2024-03-22T06:41:24;19.55;;;11.35;;
47519;SDS011;33252;48.122;11.538;2024-03-22T06:43:49;16.13;;;10.65;;
47519;SDS011;33252;48.122;11.538;2024-03-22T06:46:15;20.23;;;12.38;;
47519;SDS011;33252;48.122;11.538;2024-03-22T06:48:40;18.38;;;12.18;;
47519;SDS011;33252;48.122;11.538;2024-03-22T06:51:06;16.33;;;10.50;;
47519;SDS011;33252;48.122;11.538;2024-03-22T06:53:31;16.33;;;11.45;;
47519;SDS011;33252;48.122;11.538;2024-03-22T06:55:57;16.17;;;9.68;;
47519;SDS011;33252;48.122;11.538;2024-03-22T06:58:22;19.17;;;11.95;;
47519;SDS011;33252;48.122;11.538;2024-03-22T07:00:48;17.60;;;10.90;;
47519;SDS011;33252;48.122;11.538;2024-03-22T07:03:14;19.00;;;11.43;;
47519;SDS011;33252;48.122;11.538;2024-03-22T07:05:39;15.82;;;10.93;;
47519;SDS011;33252;48.122;11.538;2024-03-22T07:08:05;17.17;;;10.75;;
47519;SDS011;33252;48.122;11.538;2024-03-22T07:10:31;17.23;;;11.55;;
47519;SDS011;33252;48.122;11.538;2024-03-22T07:12:57;15.68;;;10.77;;
47519;SDS011;33252;48.122;11.538;2024-03-22T07:15:23;17.30;;;11.75;;
47519;SDS011;33252;48.122;11.538;2024-03-22T07:17:49;15.95;;;10.48;;
47519;SDS011;33252;48.122;11.538;2024-03-22T07:20:15;16.65;;;10.18;;
47519;SDS011;33252;48.122;11.538;2024-03-22T07:22:41;16.48;;;10.52;;
47519;SDS011;33252;48.122;11.538;2024-03-22T07:25:06;17.30;;;9.75;;
47519;SDS011;33252;48.122;11.538;2024-03-22T07:27:34;16.70;;;9.48;;
47519;SDS011;33252;48.122;11.538;2024-03-22T07:30:00;18.20;;;10.10;;
47519;SDS011;33252;48.122;11.538;2024-03-22T07:32:26;17.80;;;9.52;;
47519;SDS011;33252;48.122;11.538;2024-03-22T07:34:51;14.77;;;10.05;;
47519;SDS011;33252;48.122;11.538;2024-03-22T07:37:17;14.75;;;8.63;;
47519;SDS011;33252;48.122;11.538;2024-03-22T07:39:42;14.82;;;8.88;;
47519;SDS011;33252;48.122;11.538;2024-03-22T07:42:08;13.00;;;8.60;;
47519;SDS011;33252;48.122;11.538;2024-03-22T07:44:33;17.88;;;10.43;;
47519;SDS011;33252;48.122;11.538;2024-03-22T07:46:59;12.65;;;9.30;;
47519;SDS011;33252;48.122;11.538;2024-03-22T07:49:24;12.60;;;7.68;;
47519;SDS011;33252;48.122;11.538;2024-03-22T07:51:50;10.35;;;8.00;;
47519;SDS011;33252;48.122;11.538;2024-03-22T07:54:15;13.48;;;8.98;;
47519;SDS011;33252;48.122;11.538;2024-03-22T07:56:41;15.77;;;7.97;;
47519;SDS011;33252;48.122;11.538;2024-03-22T07:59:07;13.82;;;8.48;;
47519;SDS011;33252;48.122;11.538;2024-03-22T08:01:32;11.02;;;8.15;;
47519;SDS011;33252;48.122;11.538;2024-03-22T08:03:58;10.60;;;9.07;;
47519;SDS011;33252;48.122;11.538;2024-03-22T08:06:23;12.02;;;7.75;;
47519;SDS011;33252;48.122;11.538;2024-03-22T08:08:49;11.35;;;8.32;;
47519;SDS011;33252;48.122;11.538;2024-03-22T08:11:14;10.60;;;7.85;;
47519;SDS011;33252;48.122;11.538;2024-03-22T08:13:40;9.75;;;7.38;;
47519;SDS011;33252;48.122;11.538;2024-03-22T08:16:05;10.77;;;7.43;;
47519;SDS011;33252;48.122;11.538;2024-03-22T08:18:31;10.85;;;6.53;;
47519;SDS011;33252;48.122;11.538;2024-03-22T08:21:00;10.55;;;7.22;;
47519;SDS011;33252;48.122;11.538;2024-03-22T08:23:26;13.23;;;7.28;;
47519;SDS011;33252;48.122;11.538;2024-03-22T08:25:51;9.57;;;7.15;;
47519;SDS011;33252;48.122;11.538;2024-03-22T08:28:17;12.55;;;7.03;;
47519;SDS011;33252;48.122;11.538;2024-03-22T08:30:42;13.07;;;7.18;;
47519;SDS011;33252;48.122;11.538;2024-03-22T08:33:09;10.25;;;6.45;;
47519;SDS011;33252;48.122;11.538;2024-03-22T08:35:35;9.73;;;7.25;;
47519;SDS011;33252;48.122;11.538;2024-03-22T08:38:00;10.18;;;6.18;;
47519;SDS011;33252;48.122;11.538;2024-03-22T08:40:26;9.13;;;6.45;;
47519;SDS011;33252;48.122;11.538;2024-03-22T08:42:52;8.52;;;5.32;;
47519;SDS011;33252;48.122;11.538;2024-03-22T08:45:18;7.70;;;5.45;;
47519;SDS011;33252;48.122;11.538;2024-03-22T08:47:43;6.85;;;5.05;;
47519;SDS011;33252;48.122;11.538;2024-03-22T08:50:11;7.05;;;5.80;;
47519;SDS011;33252;48.122;11.538;2024-03-22T08:52:36;6.85;;;4.90;;
47519;SDS011;33252;48.122;11.538;2024-03-22T08:55:03;8.93;;;4.47;;
47519;SDS011;33252;48.122;11.538;2024-03-22T08:57:30;8.55;;;4.95;;
47519;SDS011;33252;48.122;11.538;2024-03-22T08:59:56;7.20;;;5.63;;
47519;SDS011;33252;48.122;11.538;2024-03-22T09:02:22;5.85;;;4.80;;
47519;SDS011;33252;48.122;11.538;2024-03-22T09:04:47;8.20;;;5.43;;
47519;SDS011;33252;48.122;11.538;2024-03-22T09:07:13;9.85;;;5.15;;
47519;SDS011;33252;48.122;11.538;2024-03-22T09:09:39;6.65;;;5.45;;
47519;SDS011;33252;48.122;11.538;2024-03-22T09:12:04;9.73;;;6.35;;
47519;SDS011;33252;48.122;11.538;2024-03-22T09:14:30;9.45;;;5.75;;
47519;SDS011;33252;48.122;11.538;2024-03-22T09:16:55;7.25;;;4.63;;
47519;SDS011;33252;48.122;11.538;2024-03-22T09:19:21;9.80;;;5.90;;
47519;SDS011;33252;48.122;11.538;2024-03-22T09:21:46;7.80;;;5.20;;
47519;SDS011;33252;48.122;11.538;2024-03-22T09:24:12;8.45;;;5.72;;
47519;SDS011;33252;48.122;11.538;2024-03-22T09:26:37;9.23;;;4.80;;
47519;SDS011;33252;48.122;11.538;2024-03-22T09:29:03;5.78;;;3.13;;
47519;SDS011;33252;48.122;11.538;2024-03-22T09:31:29;8.82;;;4.55;;
47519;SDS011;33252;48.122;11.538;2024-03-22T09:33:55;5.85;;;4.20;;
47519;SDS011;33252;48.122;11.538;2024-03-22T09:36:21;7.82;;;4.43;;
47519;SDS011;33252;48.122;11.538;2024-03-22T09:38:47;7.38;;;4.03;;
47519;SDS011;33252;48.122;11.538;2024-03-22T09:41:14;4.35;;;3.38;;
47519;SDS011;33252;48.122;11.538;2024-03-22T09:43:39;5.90;;;3.42;;
47519;SDS011;33252;48.122;11.538;2024-03-22T09:46:05;5.55;;;4.13;;
47519;SDS011;33252;48.122;11.538;2024-03-22T09:48:32;6.05;;;3.70;;
47519;SDS011;33252;48.122;11.538;2024-03-22T09:50:58;5.45;;;3.75;;
47519;SDS011;33252;48.122;11.538;2024-03-22T09:53:26;6.05;;;4.10;;
47519;SDS011;33252;48.122;11.538;2024-03-22T09:55:54;6.93;;;4.03;;
47519;SDS011;33252;48.122;11.538;2024-03-22T09:58:23;7.65;;;4.80;;
47519;SDS011;33252;48.122;11.538;2024-03-22T10:00:50;6.40;;;4.50;;
47519;SDS011;33252;48.122;11.538;2024-03-22T10:03:15;6.60;;;4.57;;
47519;SDS011;33252;48.122;11.538;2024-03-22T10:05:41;5.50;;;4.45;;
47519;SDS011;33252;48.122;11.538;2024-03-22T10:08:06;8.20;;;5.03;;
47519;SDS011;33252;48.122;11.538;2024-03-22T10:10:32;6.18;;;3.95;;
47519;SDS011;33252;48.122;11.538;2024-03-22T10:13:02;6.32;;;4.50;;
47519;SDS011;33252;48.122;11.538;2024-03-22T10:15:29;6.43;;;4.82;;
47519;SDS011;33252;48.122;11.538;2024-03-22T10:17:58;5.03;;;4.53;;
47519;SDS011;33252;48.122;11.538;2024-03-22T10:20:23;7.28;;;4.45;;
47519;SDS011;33252;48.122;11.538;2024-03-22T10:22:54;7.30;;;4.65;;
47519;SDS011;33252;48.122;11.538;2024-03-22T10:25:21;10.68;;;5.43;;
47519;SDS011;33252;48.122;11.538;2024-03-22T10:27:47;7.15;;;4.28;;
47519;SDS011;33252;48.122;11.538;2024-03-22T10:30:13;6.63;;;4.43;;
47519;SDS011;33252;48.122;11.538;2024-03-22T10:32:44;7.78;;;4.63;;
47519;SDS011;33252;48.122;11.538;2024-03-22T10:35:13;6.03;;;4.70;;
47519;SDS011;33252;48.122;11.538;2024-03-22T10:37:39;6.53;;;4.32;;
47519;SDS011;33252;48.122;11.538;2024-03-22T10:40:05;7.20;;;4.05;;
47519;SDS011;33252;48.122;11.538;2024-03-22T10:42:33;5.78;;;3.55;;
47519;SDS011;33252;48.122;11.538;2024-03-22T10:44:59;5.55;;;4.35;;
47519;SDS011;33252;48.122;11.538;2024-03-22T10:47:24;5.93;;;3.83;;
47519;SDS011;33252;48.122;11.538;2024-03-22T10:49:55;5.72;;;4.30;;
47519;SDS011;33252;48.122;11.538;2024-03-22T10:55:27;6.57;;;5.10;;
47519;SDS011;33252;48.122;11.538;2024-03-22T10:57:57;5.18;;;4.07;;
47519;SDS011;33252;48.122;11.538;2024-03-22T11:00:29;6.25;;;4.22;;
47519;SDS011;33252;48.122;11.538;2024-03-22T11:02:56;5.53;;;3.88;;
47519;SDS011;33252;48.122;11.538;2024-03-22T11:05:22;6.28;;;4.40;;
47519;SDS011;33252;48.122;11.538;2024-03-22T11:07:57;6.18;;;3.83;;
47519;SDS011;33252;48.122;11.538;2024-03-22T11:10:29;5.13;;;4.00;;
47519;SDS011;33252;48.122;11.538;2024-03-22T11:13:00;4.85;;;3.83;;
47519;SDS011;33252;48.122;11.538;2024-03-22T11:15:27;6.38;;;3.72;;
47519;SDS011;33252;48.122;11.538;2024-03-22T11:17:53;5.43;;;3.88;;
47519;SDS011;33252;48.122;11.538;2024-03-22T11:20:19;5.32;;;4.05;;
47519;SDS011;33252;48.122;11.538;2024-03-22T11:22:44;7.60;;;4.25;;
47519;SDS011;33252;48.122;11.538;2024-03-22T11:25:10;6.20;;;4.25;;
47519;SDS011;33252;48.122;11.538;2024-03-22T11:27:35;5.70;;;4.35;;
47519;SDS011;33252;48.122;11.538;2024-03-22T11:30:01;7.38;;;4.70;;
47519;SDS011;33252;48.122;11.538;2024-03-22T11:32:26;9.75;;;5.95;;
47519;SDS011;33252;48.122;11.538;2024-03-22T11:34:53;6.70;;;5.30;;
47519;SDS011;33252;48.122;11.538;2024-03-22T11:37:19;6.43;;;4.40;;
47519;SDS011;33252;48.122;11.538;2024-03-22T11:39:44;7.97;;;4.30;;
47519;SDS011;33252;48.122;11.538;2024-03-22T11:42:10;7.35;;;4.43;;
47519;SDS011;33252;48.122;11.538;2024-03-22T11:44:37;8.35;;;4.68;;
47519;SDS011;33252;48.122;11.538;2024-03-22T11:47:04;5.10;;;4.47;;
47519;SDS011;33252;48.122;11.538;2024-03-22T11:49:30;5.47;;;4.35;;
47519;SDS011;33252;48.122;11.538;2024-03-22T11:51:56;6.07;;;5.05;;
47519;SDS011;33252;48.122;11.538;2024-03-22T11:54:22;5.18;;;4.03;;
47519;SDS011;33252;48.122;11.538;2024-03-22T11:56:48;4.85;;;4.32;;
47519;SDS011;33252;48.122;11.538;2024-03-22T11:59:14;4.78;;;3.65;;
47519;SDS011;33252;48.122;11.538;2024-03-22T12:01:44;5.75;;;5.18;;
47519;SDS011;33252;48.122;11.538;2024-03-22T12:04:09;6.68;;;4.65;;
47519;SDS011;33252;48.122;11.538;2024-03-22T12:06:40;6.65;;;4.03;;
47519;SDS011;33252;48.122;11.538;2024-03-22T12:09:07;5.82;;;4.45;;
47519;SDS011;33252;48.122;11.538;2024-03-22T12:11:34;5.55;;;3.72;;
47519;SDS011;33252;48.122;11.538;2024-03-22T12:14:00;6.07;;;4.45;;
47519;SDS011;33252;48.122;11.538;2024-03-22T12:16:25;8.02;;;4.53;;
47519;SDS011;33252;48.122;11.538;2024-03-22T12:18:51;5.35;;;4.50;;
47519;SDS011;33252;48.122;11.538;2024-03-22T12:21:16;6.10;;;4.28;;
47519;SDS011;33252;48.122;11.538;2024-03-22T12:23:42;5.55;;;4.75;;
47519;SDS011;33252;48.122;11.538;2024-03-22T12:26:07;8.30;;;4.97;;
47519;SDS011;33252;48.122;11.538;2024-03-22T12:28:33;8.70;;;5.40;;
47519;SDS011;33252;48.122;11.538;2024-03-22T12:30:58;6.32;;;4.28;;
47519;SDS011;33252;48.122;11.538;2024-03-22T12:33:24;5.70;;;5.10;;
47519;SDS011;33252;48.122;11.538;2024-03-22T12:35:49;6.28;;;4.53;;
47519;SDS011;33252;48.122;11.538;2024-03-22T12:38:16;5.30;;;3.80;;
47519;SDS011;33252;48.122;11.538;2024-03-22T12:40:42;11.25;;;4.88;;
47519;SDS011;33252;48.122;11.538;2024-03-22T12:43:09;6.88;;;3.85;;
47519;SDS011;33252;48.122;11.538;2024-03-22T12:45:35;6.03;;;4.60;;
47519;SDS011;33252;48.122;11.538;2024-03-22T12:48:00;7.63;;;4.30;;
47519;SDS011;33252;48.122;11.538;2024-03-22T12:50:26;6.57;;;4.90;;
47519;SDS011;33252;48.122;11.538;2024-03-22T12:52:52;6.72;;;3.92;;
47519;SDS011;33252;48.122;11.538;2024-03-22T12:55:17;6.40;;;4.53;;
47519;SDS011;33252;48.122;11.538;2024-03-22T12:57:43;5.40;;;4.65;;
47519;SDS011;33252;48.122;11.538;2024-03-22T13:00:08;8.48;;;4.95;;
47519;SDS011;33252;48.122;11.538;2024-03-22T13:02:41;6.75;;;4.72;;
47519;SDS011;33252;48.122;11.538;2024-03-22T13:05:06;5.35;;;3.08;;
47519;SDS011;33252;48.122;11.538;2024-03-22T13:07:33;5.13;;;4.00;;
47519;SDS011;33252;48.122;11.538;2024-03-22T13:09:59;6.88;;;3.47;;
47519;SDS011;33252;48.122;11.538;2024-03-22T13:12:25;6.38;;;3.40;;
47519;SDS011;33252;48.122;11.538;2024-03-22T13:14:51;5.18;;;3.72;;
47519;SDS011;33252;48.122;11.538;2024-03-22T13:17:17;5.03;;;3.35;;
47519;SDS011;33252;48.122;11.538;2024-03-22T13:19:43;2.85;;;2.55;;
47519;SDS011;33252;48.122;11.538;2024-03-22T13:22:08;4.60;;;3.22;;
47519;SDS011;33252;48.122;11.538;2024-03-22T13:24:34;6.13;;;3.47;;
47519;SDS011;33252;48.122;11.538;2024-03-22T13:27:00;4.43;;;3.55;;
47519;SDS011;33252;48.122;11.538;2024-03-22T13:29:27;3.78;;;2.92;;
47519;SDS011;33252;48.122;11.538;2024-03-22T13:31:53;5.57;;;3.95;;
47519;SDS011;33252;48.122;11.538;2024-03-22T13:34:18;4.20;;;3.72;;
47519;SDS011;33252;48.122;11.538;2024-03-22T13:36:44;4.07;;;3.10;;
47519;SDS011;33252;48.122;11.538;2024-03-22T13:39:09;3.28;;;2.15;;
47519;SDS011;33252;48.122;11.538;2024-03-22T13:41:35;2.63;;;1.90;;
47519;SDS011;33252;48.122;11.538;2024-03-22T13:44:01;2.85;;;2.55;;
47519;SDS011;33252;48.122;11.538;2024-03-22T13:46:28;2.88;;;2.03;;
47519;SDS011;33252;48.122;11.538;2024-03-22T13:48:54;3.03;;;2.67;;
47519;SDS011;33252;48.122;11.538;2024-03-22T13:51:20;2.28;;;2.08;;
47519;SDS011;33252;48.122;11.538;2024-03-22T13:53:46;2.25;;;2.05;;
47519;SDS011;33252;48.122;11.538;2024-03-22T13:56:12;3.33;;;2.50;;
47519;SDS011;33252;48.122;11.538;2024-03-22T13:58:37;3.38;;;2.22;;
47519;SDS011;33252;48.122;11.538;2024-03-22T14:01:03;4.90;;;2.10;;
47519;SDS011;33252;48.122;11.538;2024-03-22T14:03:28;2.28;;;1.65;;
47519;SDS011;33252;48.122;11.538;2024-03-22T14:05:54;2.75;;;2.00;;
47519;SDS011;33252;48.122;11.538;2024-03-22T14:08:19;2.92;;;2.10;;
47519;SDS011;33252;48.122;11.538;2024-03-22T14:10:45;4.57;;;2.50;;
47519;SDS011;33252;48.122;11.538;2024-03-22T14:13:11;5.60;;;3.00;;
47519;SDS011;33252;48.122;11.538;2024-03-22T14:15:37;3.67;;;1.75;;
47519;SDS011;33252;48.122;11.538;2024-03-22T14:18:04;3.03;;;1.40;;